Lassen Volcanic National Park, CA

9:05 PM PDT on September 14, 2014 (GMT -0700)
Chico Municipal | Change Station
CLOSE
Current Station
Airport
Location: Chico,
Elevation: 240 ft
Nearby Weather Stations

Elev 240 ft 39.80 °N, 121.86 °W | Updated 10 minutes ago

Clear
Clear
86 °F
Feels Like 86 °F
N
0
Wind Variable Wind from North

Today
High -- | Low -- °F
--% Chance of Precip.
Yesterday
High -- | Low -- °F
Precip. -- in
6:45 AM 7:16 PM
Waning Gibbous, 59% visible
Pressure 29.75 in
Visibility 10.0 miles
Clouds Clear
Dew Point 43 °F
Humidity 22%
Rainfall 0.00 in
Snow Depth 0 in , 0 in , 1 in
UV 0 out of 12
Pollen 6.70 out of 12
Air Quality Not available.
Flu Activity Not available.
METAR KCIC 150355Z AUTO 00000KT 10SM CLR 30/06 A2975 RMK AO1

More Conditions Fewer Conditions

Pressure 29.75 in
Visibility 10.0 miles
Clouds Clear
Dew Point 43 °F
Humidity 22%
Rainfall 0.00 in
Snow Depth 0 in , 0 in , 1 in
UV 0 out of 12
Pollen 6.70 out of 12
Air Quality Not available.
Flu Activity Not available.
METAR KCIC 150355Z AUTO 00000KT 10SM CLR 30/06 A2975 RMK AO1

More Conditions Fewer Conditions

10-Day Weather Forecast

Almanac

Astronomy

Sep. 14, 2014 Rise Set
Actual Time 6:45 AM PDT 7:16 PM PDT
Civil Twilight 6:18 AM PDT 7:43 PM PDT
Nautical Twilight 5:46 AM PDT 8:15 PM PDT
Astronomical Twilight 5:13 AM PDT 8:48 PM PDT
Moon 11:12 PM PDT (9/14) 12:57 PM PDT (9/14)
Length of Visible Light 13h 24m
Length of Day
12h 30m
Tomorrow will be 2m 37s shorter.
Waning Gibbous, 59% of the Moon is Illuminated
Sep 15
Waning Gibbous
Sep 15
Last Quarter
Sep 24
New
Oct 1
First Quarter
Oct 8
Full

Today's Extremes

State Highs State Lows

Community

WunderPhotos

Upload Photos

1,753,398 photos uploaded!

Nearby

Snow Depth

Station Depth Elevation
Leavitt Meadows 0 in 7200 ft
Tahoe City Cross 0 in 6750 ft
Summit Meadow 1 in 9122 ft
Monitor Pass 0 in 8350 ft
Leavitt Lake 0 in 9400 ft

Earthquake Activity

City Distance Mag. Time & Date
Lakeview, Oregon 142 miles 2.8 7:48 PM PDT
2014-09-14
Covelo, California 94 miles 3.5 1:17 PM PDT
2014-09-14
Cobb, California 124 miles 2.8 11:07 AM PDT
2014-09-14
Sun Valley, Nevada 106 miles 2.7 1:02 PM PDT
2014-09-11
Minimum magnitude displayed is 2.5.

Coastal Water Temperatures

Place Temperature
No Stations Reporting

Nearby Weather Stations